Maryland AWOS List, Phone Numbers

USA |  
| Search AWOS

Rocky Mountain States: Montana | Wyoming | Colorado | New Mexico

Complete weather reports: Maryland

Legend: KFNL = METAR available Follow your local AWOS on AV Mobile = METAR available on AV Mobile
Station Maryland Location Frequency Phone
KAPGFAA ID APG, KAPG 262353Z 20015KT 7SM BKN050 BKN200 18/12 A2960 Follow KAPG on AV Mobile Phillips Army Air Field / Aberdeen
K61WICAO ID K61W Annapolis Coast Guard Station
KNAKICAO ID KNAK, KNAK 270054Z AUTO 33009KT 7SM -RA BKN060 BKN080 OVC095 14/12 A2963 RMK AO2 RAB37 SLP037 P0003 T01390117 Follow KNAK on AV Mobile ANNAPOLIS US NAVAL ACADEMY
KLWXICAO ID KLWX Baltimore / DC Nexrad
KDMHICAO ID KDMH, KDMH 270054Z AUTO 16/13 A2966 RMK AO1 SLP043 P0013 T01610128 Follow KDMH on AV Mobile BALTIMORE DOWNTOWN
KMTNFAA ID MTN, AWOS-3, KMTN 270050Z 31007KT 10SM SCT010 BKN034 16/15 A2967 Follow KMTN on AV Mobile Baltimore / Martin 410-682-8848
KBWIFAA ID BWI, ASOS, KBWI 270054Z 30006KT 10SM SCT013 BKN032 OVC041 16/13 A2965 Follow KBWI on AV Mobile BALTIMORE-WASHINGTON INTERNATIONAL 410-691-1278
4MDFAA ID 4MD, Belfort PIER 7
KCGEFAA ID CGE, AWOS-3, KCGE 270124Z AUTO 18005KT 10SM CLR 16/13 A2963 RMK AO1 Follow KCGE on AV Mobile CAMBRIDGE 120.675 410-228-7559
KADWFAA ID ADW, KADW 270132Z AUTO 34015KT 10SM FEW015 SCT048 SCT060 OVC080 16/14 A2966 RMK AO2 RAE0059DZB0059E04RAB04E32 Follow KADW on AV Mobile Camp Springs / Andrews Air Force Base
W32FAA ID W32, Belfort WASHINGTON EXECUTIVE/HYDE FIELD
KCGSFAA ID CGS, AWOS-3, KCGS 270120Z AUTO 32006KT 10SM BKN040 OVC048 16/12 A2967 RMK AO1 Follow KCGS on AV Mobile COLLEGE PARK 121.225 301-864-5497
K66WICAO ID K66W Cove Point Coast Guard Light Station
KCBEFAA ID CBE, AWOS-3, KCBE 270124Z AUTO 32005KT 10SM BKN026 BKN032 OVC060 09/03 A2985 Follow KCBE on AV Mobile Cumberland, Greater Cumberland Regional Airport 128.625 304-738-0451
KESNFAA ID ESN, AWOS-3, KESN 270050Z COR 21007KT 10SM SKC 17/15 A2966 Follow KESN on AV Mobile Easton / Newman Field 124.475 410-822-2817
KFMEFAA ID FME, AWOS-3, KFME 232118Z AUTO 29003KT 10SM CLR 07/M12 A3020 RMK AO1 Follow KFME on AV Mobile Fort Meade / Tipton 123.925
KJWXICAO ID KJWX Fort Ritchie
KFDKFAA ID FDK, AWOS-3, KFDK 270120Z AUTO 32013G18KT 10SM -RA SCT030 BKN070 OVC090 13/05 A2975 Follow KFDK on AV Mobile Frederick, Frederick Municipal Airport 124.875 301-600-1457
KGAIFAA ID GAI, AWOS-3, KGAI 270135Z AUTO 32010G16KT 10SM BKN049 BKN065 OVC080 13/09 A2974 RMK AO1 Follow KGAI on AV Mobile GAITHERSBURG 128.275 301-977-2971
KHGRFAA ID HGR, ASOS, KHGR 270135Z 34015G23KT 10SM SCT023 BKN060 OVC095 09/04 A2976 RMK AO2 PK WND 32026/0105 RAE0057 P0000 T00940044 Follow KHGR on AV Mobile HAGERSTOWN REGIONAL AIRPORT 126.375 301-745-3497
K2W6FAA ID 2W6, AWOS-3, K2W6 270124Z AUTO 18004KT 10SM SCT090 17/13 A2965 RMK AO1 Follow K2W6 on AV Mobile LEONARDTOWN 119.575 301-373-6514
K2G4FAA ID 2G4, AWOS-3, K2G4 270120Z AUTO 32008G14KT 272V002 1 1/2SM BR OVC001 01/ A2979 RMK AO1 VIS 1/2V5 Follow K2G4 on AV Mobile OAKLAND 120.125 301-746-8443
KW30ICAO ID KW30 Ocean City
KN80ICAO ID KN80 Ocean City, Ocean City Municipal Airport
KOXBFAA ID OXB, ASOS, KOXB 270132Z AUTO 23012G20KT 3SM BR OVC002 12/12 A2968 RMK AO2 T01170117 TSNO Follow KOXB on AV Mobile OCEAN CITY MUNICIPAL AIRPORT 119.025 410-213-1530
KNHKFAA ID NHK, KNHK 270052Z 20008KT 10SM SCT060 BKN250 18/14 A2963 RMK AO2 SLP034 T01780144 Follow KNHK on AV Mobile NAS PATUXENT RIVER MD
KSBYFAA ID SBY, ASOS, KSBY 270054Z 18010KT 10SM CLR 16/15 A2964 Follow KSBY on AV Mobile SALISBURY-WICOMICO CTY REG 118.325 410-341-0868
KNUIFAA ID NUI, KNUI 270053Z AUTO 15003KT 10SM CLR 16/13 A2963 RMK AO2 SLP034 T01560128 Follow KNUI on AV Mobile KNUI WEBSTER FIELD ANNEX
KW29FAA ID W29, AWOS-3, KW29 270124Z AUTO 35006KT 10SM 12/12 A2966 RMK AO1 Follow KW29 on AV Mobile STEVENSVILLE 120.575 410-643-8795
K67WICAO ID K67W Stillpond Coast Guard Station
K65WICAO ID K65W Thomas Point Coast Guard Station
KDMWFAA ID DMW, AWOS-3, KDMW 270125Z AUTO 33007KT 10SM SCT026 BKN060 OVC080 12/09 A2971 RMK AO2 Follow KDMW on AV Mobile WESTMINSTER 121.25 410-876-1281

Click on the AV Mobile icon AV Mobile icon by any station to follow that AWOS feed on AirportView.net Mobile.

Garmin aera 796 $1999 at Avionics Specialists LLC
Bose A20 Aviation Headsets $995 at Avionics Specialists LLC